Time;durP1;ratioP1;P1;durP2;ratioP2;P2;SDS_P1;SDS_P2;PMS_P1;PMS_P2;Temp;Humidity;BMP_temperature;BMP_pressure;BME280_temperature;BME280_humidity;BME280_pressure;Samples;Min_cycle;Max_cycle;Signal;HPM_P1;HPM_P2
2023/08/26 00:01:41;;;;;;;19.13;11.13;;;;;;;19.06;100.00;96194.03;4984908;28;20166;-68
2023/08/26 00:04:07;;;;;;;14.93;11.32;;;;;;;18.88;100.00;96210.34;4979517;28;20414;-70
2023/08/26 00:06:33;;;;;;;19.65;13.38;;;;;;;18.77;100.00;96213.38;4983821;28;20048;-70
2023/08/26 00:08:59;;;;;;;16.33;12.85;;;;;;;18.71;100.00;96213.09;4984115;28;20045;-71
2023/08/26 00:11:24;;;;;;;23.27;14.55;;;;;;;18.65;100.00;96205.72;4978655;28;20046;-72
2023/08/26 00:13:49;;;;;;;17.65;13.93;;;;;;;18.66;100.00;96205.28;4982756;28;20052;-69
2023/08/26 00:16:15;;;;;;;22.42;13.77;;;;;;;18.69;100.00;96209.97;4979797;28;20038;-70
2023/08/26 00:18:40;;;;;;;19.23;12.90;;;;;;;18.80;100.00;96222.81;4984684;28;20077;-70
2023/08/26 00:21:06;;;;;;;14.45;12.07;;;;;;;18.93;100.00;96236.81;4979993;28;20547;-71
2023/08/26 00:23:31;;;;;;;16.65;12.85;;;;;;;19.04;100.00;96246.44;4983868;28;20109;-70
2023/08/26 00:25:57;;;;;;;18.98;11.98;;;;;;;19.17;100.00;96248.50;4979457;28;20042;-70
2023/08/26 00:28:23;;;;;;;18.45;11.80;;;;;;;19.21;100.00;96240.88;4980574;28;20054;-69
2023/08/26 00:30:58;;;;;;;20.33;11.57;;;;;;;19.13;100.00;96237.50;4984173;28;20045;-70
2023/08/26 00:33:24;;;;;;;18.58;12.98;;;;;;;19.07;100.00;96253.91;4993956;28;20038;-71
2023/08/26 00:35:49;;;;;;;19.33;13.27;;;;;;;18.99;100.00;96255.28;4998405;28;20050;-71
2023/08/26 00:38:15;;;;;;;19.00;12.90;;;;;;;19.01;100.00;96261.16;4982484;28;20503;-67
2023/08/26 00:40:40;;;;;;;17.30;12.27;;;;;;;19.07;100.00;96258.69;4985228;28;20046;-69
2023/08/26 00:43:09;;;;;;;17.33;12.65;;;;;;;19.20;100.00;96258.75;4976232;28;20526;-69
2023/08/26 00:45:41;;;;;;;20.08;12.55;;;;;;;19.29;100.00;96258.91;4983005;28;20053;-69
2023/08/26 00:48:08;;;;;;;15.27;11.52;;;;;;;19.41;100.00;96261.00;4974908;28;20042;-72
2023/08/26 00:50:35;;;;;;;15.43;10.88;;;;;;;19.49;100.00;96265.13;4980696;28;20583;-71
2023/08/26 00:53:02;;;;;;;16.25;11.27;;;;;;;19.54;100.00;96271.41;4981089;28;20046;-70
2023/08/26 00:55:28;;;;;;;15.75;11.32;;;;;;;19.45;100.00;96274.78;4976899;28;20065;-67
2023/08/26 00:57:55;;;;;;;22.08;11.23;;;;;;;19.51;100.00;96283.38;4982677;28;20069;-69
2023/08/26 01:00:21;;;;;;;19.85;12.52;;;;;;;19.47;100.00;96281.47;4979502;28;20042;-70
2023/08/26 01:02:47;;;;;;;18.60;12.32;;;;;;;19.37;100.00;96276.19;4983729;28;20070;-70
2023/08/26 01:05:13;;;;;;;16.55;11.38;;;;;;;19.47;100.00;96281.47;4977888;28;20077;-69
2023/08/26 01:07:39;;;;;;;21.60;11.55;;;;;;;19.57;100.00;96279.63;4980225;28;20069;-71
2023/08/26 01:10:05;;;;;;;18.17;12.63;;;;;;;19.21;100.00;96277.75;4977987;28;20119;-71
2023/08/26 01:12:55;;;;;;;18.60;12.93;;;;;;;19.07;100.00;96261.44;4983067;28;20100;-70
2023/08/26 01:15:20;;;;;;;18.33;12.70;;;;;;;19.14;100.00;96263.25;4977250;28;20073;-71
2023/08/26 01:17:46;;;;;;;19.67;12.60;;;;;;;19.28;100.00;96277.59;4982768;28;20078;-70
2023/08/26 01:20:12;;;;;;;17.88;13.38;;;;;;;19.26;100.00;96265.34;4979110;28;20542;-67
2023/08/26 01:22:41;;;;;;;18.83;12.18;;;;;;;19.21;100.00;96276.97;4983280;28;20034;-70
2023/08/26 01:25:07;;;;;;;;;;;;;;;19.13;100.00;96259.72;4978509;28;20054;-69
2023/08/26 01:27:32;;;;;;;18.20;13.10;;;;;;;18.92;100.00;96255.44;4998317;28;19917;-70
2023/08/26 01:29:58;;;;;;;27.58;15.30;;;;;;;18.67;100.00;96256.00;4983898;28;20042;-69
2023/08/26 01:32:48;;;;;;;19.23;15.02;;;;;;;18.67;100.00;96256.78;4976158;28;20050;-68
2023/08/26 01:35:21;;;;;;;23.35;15.63;;;;;;;18.67;100.00;96276.22;4976966;28;20112;-70
2023/08/26 01:37:49;;;;;;;24.25;16.67;;;;;;;18.71;100.00;96279.69;4982094;28;20069;-71
2023/08/26 01:40:17;;;;;;;21.63;15.73;;;;;;;18.94;100.00;96291.09;4977223;28;20042;-70
2023/08/26 01:42:44;;;;;;;24.63;14.45;;;;;;;19.09;100.00;96298.66;4992311;28;20534;-68
2023/08/26 01:45:11;;;;;;;21.60;14.13;;;;;;;19.29;100.00;96304.13;5017509;28;20041;-70
2023/08/26 01:47:37;;;;;;;21.15;13.00;;;;;;;19.32;100.00;96310.00;5026022;28;20096;-69
2023/08/26 01:50:03;;;;;;;17.45;13.48;;;;;;;19.28;100.00;96299.78;5025591;28;20124;-72
2023/08/26 01:52:29;;;;;;;20.77;14.52;;;;;;;19.19;100.00;96298.81;5027071;28;20095;-71
2023/08/26 01:54:54;;;;;;;21.92;13.02;;;;;;;19.18;100.00;96317.47;5018603;28;20053;-70
2023/08/26 01:57:19;;;;;;;18.98;13.88;;;;;;;19.20;100.00;96314.28;5017711;28;20107;-69
2023/08/26 01:59:45;;;;;;;24.13;14.02;;;;;;;19.40;100.00;96328.84;5019921;28;20124;-71
2023/08/26 02:02:12;;;;;;;18.83;12.75;;;;;;;19.41;100.00;96324.88;5015927;28;20044;-71
2023/08/26 02:04:37;;;;;;;17.20;12.65;;;;;;;19.40;100.00;96331.63;5020937;28;20034;-69
2023/08/26 02:07:03;;;;;;;24.50;14.27;;;;;;;19.43;100.00;96332.78;5018465;28;20045;-73
2023/08/26 02:09:29;;;;;;;19.63;13.82;;;;;;;19.41;100.00;96324.88;5018718;28;20042;-69
2023/08/26 02:11:54;;;;;;;20.00;13.55;;;;;;;19.41;100.00;96322.09;5018662;28;20433;-70
2023/08/26 02:14:20;;;;;;;20.25;14.82;;;;;;;19.33;100.00;96317.13;5016720;28;20559;-71
2023/08/26 02:16:45;;;;;;;23.73;15.98;;;;;;;19.21;100.00;96315.81;5020410;28;20049;-71
2023/08/26 02:19:10;;;;;;;26.95;15.88;;;;;;;19.04;100.00;96317.81;5017955;28;20398;-71
2023/08/26 02:21:36;;;;;;;28.73;17.52;;;;;;;18.96;100.00;96330.28;5021440;28;20049;-71
2023/08/26 02:24:01;;;;;;;24.77;18.55;;;;;;;18.91;100.00;96328.81;5023776;28;20041;-72
2023/08/26 02:26:27;;;;;;;24.80;18.50;;;;;;;18.88;100.00;96338.78;5021898;28;20046;-72
2023/08/26 02:28:52;;;;;;;23.27;17.77;;;;;;;19.03;100.00;96353.13;5025556;28;20106;-70
2023/08/26 02:31:18;;;;;;;24.42;16.35;;;;;;;19.19;100.00;96346.00;5020299;28;20517;-69
2023/08/26 02:33:43;;;;;;;24.73;17.20;;;;;;;19.23;100.00;96344.72;5019832;28;20059;-70
2023/08/26 02:36:10;;;;;;;20.40;15.63;;;;;;;19.23;100.00;96350.28;5019127;28;20100;-69
2023/08/26 02:38:36;;;;;;;19.73;15.00;;;;;;;19.40;100.00;96345.50;5026900;28;20083;-70
2023/08/26 02:41:02;;;;;;;21.80;16.15;;;;;;;19.52;100.00;96346.03;5029621;28;20378;-70
2023/08/26 02:43:28;;;;;;;31.65;15.63;;;;;;;19.67;100.00;96355.56;5022312;28;20037;-68
2023/08/26 02:45:54;;;;;;;18.95;14.50;;;;;;;19.65;100.00;96350.44;5024961;28;20041;-68
2023/08/26 02:48:21;;;;;;;17.75;14.05;;;;;;;19.71;100.00;96347.16;5020165;28;20554;-70
2023/08/26 02:50:46;;;;;;;21.90;14.15;;;;;;;19.78;100.00;96339.44;5023390;28;20069;-69
2023/08/26 02:53:12;;;;;;;24.65;14.27;;;;;;;19.67;100.00;96341.69;5019351;28;20069;-68
2023/08/26 02:55:37;;;;;;;22.70;15.23;;;;;;;19.55;100.00;96343.16;5024986;28;20421;-66
2023/08/26 02:58:03;;;;;;;21.85;14.73;;;;;;;19.60;100.00;96337.06;5021598;28;20046;-69
2023/08/26 03:00:28;;;;;;;21.65;16.02;;;;;;;19.53;100.00;96323.38;5023433;28;20048;-70
2023/08/26 03:02:54;;;;;;;18.00;13.48;;;;;;;19.51;100.00;96336.91;5022019;28;20390;-69
2023/08/26 03:05:19;;;;;;;22.50;14.15;;;;;;;19.62;100.00;96348.53;5020082;28;20129;-68
2023/08/26 03:07:44;;;;;;;20.95;12.45;;;;;;;19.74;100.00;96349.88;5023645;28;20045;-69
2023/08/26 03:10:10;;;;;;;15.95;12.13;;;;;;;19.71;100.00;96341.59;5022571;28;20104;-68
2023/08/26 03:12:35;;;;;;;17.40;9.98;;;;;;;19.79;100.00;96346.56;5028506;28;20041;-68
2023/08/26 03:15:01;;;;;;;11.90;9.43;;;;;;;19.81;100.00;96346.91;5023360;28;20038;-68
2023/08/26 03:17:26;;;;;;;14.88;8.98;;;;;;;19.90;100.00;96353.81;5019676;28;20049;-68
2023/08/26 03:19:52;;;;;;;15.23;8.90;;;;;;;19.85;100.00;96347.59;5025373;28;20132;-68
2023/08/26 03:22:17;;;;;;;15.48;8.73;;;;;;;19.86;100.00;96348.34;5019594;28;20394;-68
2023/08/26 03:24:42;;;;;;;12.77;8.63;;;;;;;19.84;100.00;96332.16;5023013;28;20053;-69
2023/08/26 03:27:08;;;;;;;16.95;8.32;;;;;;;19.81;100.00;96318.34;5019680;28;20049;-69
2023/08/26 03:29:33;;;;;;;12.65;7.82;;;;;;;19.77;100.00;96310.09;5023805;28;20041;-72
2023/08/26 03:31:59;;;;;;;15.05;8.20;;;;;;;19.86;100.00;96317.78;5022673;28;20127;-70
2023/08/26 03:34:24;;;;;;;15.95;8.57;;;;;;;19.95;100.00;96331.88;5018447;28;20111;-70
2023/08/26 03:36:50;;;;;;;15.15;8.48;;;;;;;19.99;100.00;96338.09;5022807;28;20107;-70
2023/08/26 03:39:15;;;;;;;13.02;8.57;;;;;;;20.03;100.00;96349.91;5018286;28;20045;-71
2023/08/26 03:41:41;;;;;;;10.93;7.70;;;;;;;20.00;100.00;96350.00;5023741;28;20529;-70
2023/08/26 03:44:06;;;;;;;14.55;7.85;;;;;;;20.12;100.00;96354.84;5019664;28;20041;-70
2023/08/26 03:46:31;;;;;;;9.88;8.20;;;;;;;20.04;100.00;96353.44;5023174;28;20132;-71
2023/08/26 03:48:57;;;;;;;10.25;7.60;;;;;;;19.97;100.00;96364.75;5023455;28;20042;-70
2023/08/26 03:51:22;;;;;;;11.98;7.72;;;;;;;19.94;100.00;96357.31;5017866;28;20077;-71
2023/08/26 03:53:48;;;;;;;12.85;8.23;;;;;;;19.98;100.00;96358.00;5023727;28;20490;-70
2023/08/26 03:56:13;;;;;;;13.80;8.07;;;;;;;19.91;100.00;96347.84;5018237;28;20115;-69
2023/08/26 03:58:39;;;;;;;13.60;7.50;;;;;;;19.88;100.00;96347.94;5023591;28;20110;-70
2023/08/26 04:01:05;;;;;;;11.00;7.43;;;;;;;19.92;100.00;96352.19;5018306;28;20052;-68
2023/08/26 04:03:31;;;;;;;16.02;7.97;;;;;;;19.94;100.00;96366.41;5022132;28;20046;-67
2023/08/26 04:06:00;;;;;;;11.20;7.32;;;;;;;19.94;100.00;96357.31;5024511;28;20049;-70
2023/08/26 04:08:26;;;;;;;14.05;8.25;;;;;;;20.05;100.00;96360.59;5020473;28;20037;-70
2023/08/26 04:10:56;;;;;;;9.77;7.20;;;;;;;19.96;100.00;96360.44;5031178;28;20057;-70
2023/08/26 04:13:27;;;;;;;16.38;8.68;;;;;;;19.85;100.00;96355.91;5027791;28;20452;-70
2023/08/26 04:15:55;;;;;;;14.02;7.10;;;;;;;19.77;100.00;96348.19;5028137;28;20080;-71
2023/08/26 04:18:22;;;;;;;11.50;7.18;;;;;;;19.72;100.00;96366.16;5017872;28;20052;-70
2023/08/26 04:20:48;;;;;;;16.38;7.72;;;;;;;19.76;100.00;96369.66;5023759;28;20037;-70
2023/08/26 04:23:13;;;;;;;11.05;7.75;;;;;;;19.68;100.00;96371.03;5015271;28;20099;-70
2023/08/26 04:25:39;;;;;;;16.13;8.30;;;;;;;19.62;100.00;96383.88;5022517;28;20083;-70
2023/08/26 04:28:04;;;;;;;13.05;7.43;;;;;;;19.60;100.00;96372.41;5014664;28;20102;-70
2023/08/26 04:30:30;;;;;;;15.43;7.80;;;;;;;19.61;100.00;96363.66;5022644;28;20049;-69
2023/08/26 04:32:56;;;;;;;13.00;7.32;;;;;;;19.71;100.00;96375.72;5021778;28;20044;-69
2023/08/26 04:35:21;;;;;;;15.75;7.82;;;;;;;19.81;100.00;96385.81;5017901;28;20529;-69
2023/08/26 04:37:47;;;;;;;13.20;8.15;;;;;;;19.62;100.00;96378.31;5021843;28;20052;-67
2023/08/26 04:40:12;;;;;;;12.90;8.32;;;;;;;19.53;100.00;96383.69;5018208;28;20696;-69
2023/08/26 04:42:41;;;;;;;8.43;7.43;;;;;;;19.50;100.00;96390.91;5019138;28;20487;-68
2023/08/26 04:45:09;;;;;;;12.15;8.35;;;;;;;19.50;100.00;96396.47;5017505;28;20584;-71
2023/08/26 04:47:34;;;;;;;17.67;8.02;;;;;;;19.56;100.00;96393.94;5030256;28;20489;-70
2023/08/26 04:50:01;;;;;;;17.50;8.77;;;;;;;19.47;100.00;96389.78;5024532;28;20584;-69
2023/08/26 04:52:26;;;;;;;16.38;8.50;;;;;;;19.38;100.00;96391.59;5017689;28;20090;-68
2023/08/26 04:54:52;;;;;;;15.32;8.13;;;;;;;19.36;100.00;96386.47;5022785;28;20045;-70
2023/08/26 04:57:17;;;;;;;14.07;8.20;;;;;;;19.43;100.00;96386.31;5016727;28;20087;-70
2023/08/26 04:59:43;;;;;;;14.43;7.38;;;;;;;19.37;100.00;96378.91;5022136;28;20091;-68
2023/08/26 05:02:08;;;;;;;15.55;8.07;;;;;;;19.30;100.00;96368.75;5014783;28;20037;-70
2023/08/26 05:04:34;;;;;;;16.40;7.60;;;;;;;19.32;100.00;96368.31;5020495;28;20037;-70
2023/08/26 05:06:59;;;;;;;11.98;6.63;;;;;;;19.33;100.00;96367.91;5021755;28;20045;-70
2023/08/26 05:09:25;;;;;;;10.68;6.85;;;;;;;19.27;100.00;96369.63;5017818;28;20640;-69
2023/08/26 05:11:50;;;;;;;10.75;7.03;;;;;;;19.22;100.00;96372.91;5020023;28;20040;-71
2023/08/26 05:14:16;;;;;;;11.05;7.93;;;;;;;19.22;100.00;96379.25;5015305;28;20099;-69
2023/08/26 05:16:41;;;;;;;16.38;8.18;;;;;;;19.21;100.00;96374.94;5021375;28;20044;-70
2023/08/26 05:19:06;;;;;;;20.10;9.02;;;;;;;19.06;100.00;96370.91;5016743;28;20076;-71
2023/08/26 05:21:32;;;;;;;15.38;8.75;;;;;;;18.93;100.00;96361.69;5020210;28;20046;-67
2023/08/26 05:23:59;;;;;;;13.52;8.50;;;;;;;18.84;100.00;96353.94;5021305;28;20041;-70
2023/08/26 05:26:24;;;;;;;17.48;9.65;;;;;;;18.81;100.00;96363.09;5015822;28;20057;-69
2023/08/26 05:28:50;;;;;;;17.55;9.82;;;;;;;18.85;100.00;96369.38;5022158;28;20049;-68
2023/08/26 05:31:15;;;;;;;17.17;9.70;;;;;;;18.84;100.00;96373.38;5015863;28;20091;-70
2023/08/26 05:33:40;;;;;;;13.70;9.23;;;;;;;18.93;100.00;96373.56;5021169;28;20124;-67
2023/08/26 05:36:06;;;;;;;16.83;8.85;;;;;;;19.31;100.00;96377.88;5017218;28;20645;-70
2023/08/26 05:38:31;;;;;;;10.77;8.32;;;;;;;19.54;100.00;96369.38;5021804;28;20034;-70
2023/08/26 05:40:57;;;;;;;15.23;7.60;;;;;;;19.69;100.00;96369.81;5020900;28;20060;-70
2023/08/26 05:43:22;;;;;;;15.38;8.80;;;;;;;19.77;100.00;96359.31;5022257;28;20111;-71
2023/08/26 05:45:47;;;;;;;12.95;8.10;;;;;;;19.82;100.00;96358.78;5023643;28;20044;-69
2023/08/26 05:48:13;;;;;;;14.55;8.13;;;;;;;19.87;100.00;96363.81;5016922;28;20065;-69
2023/08/26 05:50:38;;;;;;;12.38;7.70;;;;;;;19.98;100.00;96366.31;5021224;28;20385;-70
2023/08/26 05:53:04;;;;;;;12.88;7.32;;;;;;;20.10;100.00;96368.41;5018260;28;20383;-72
2023/08/26 05:55:29;;;;;;;19.33;8.98;;;;;;;20.10;100.00;96365.63;5003928;28;20120;-68
2023/08/26 05:57:54;;;;;;;14.57;8.32;;;;;;;20.07;100.00;96355.38;5021744;28;20045;-70
2023/08/26 06:00:20;;;;;;;12.25;8.43;;;;;;;20.08;100.00;96362.50;5016523;28;20564;-70
2023/08/26 06:02:45;;;;;;;14.75;7.82;;;;;;;20.25;100.00;96377.13;5020023;28;20091;-69
2023/08/26 06:05:11;;;;;;;14.05;7.90;;;;;;;20.42;100.00;96384.22;5016434;28;20053;-69
2023/08/26 06:07:36;;;;;;;13.35;7.82;;;;;;;20.51;100.00;96366.88;5019362;28;20069;-71
2023/08/26 06:10:02;;;;;;;13.13;7.75;;;;;;;20.64;100.00;96377.31;5020569;28;20505;-68
2023/08/26 06:12:27;;;;;;;8.15;6.70;;;;;;;20.77;100.00;96384.44;5016958;28;20386;-71
2023/08/26 06:14:52;;;;;;;15.27;7.70;;;;;;;20.78;100.00;96388.78;5020929;28;20398;-71
2023/08/26 06:17:18;;;;;;;12.75;6.65;;;;;;;20.79;100.00;96387.56;5012208;28;20139;-71
2023/08/26 06:19:43;;;;;;;14.80;7.13;;;;;;;20.82;100.00;96385.91;5020028;28;20042;-70
2023/08/26 06:22:09;;;;;;;9.38;6.95;;;;;;;20.89;100.00;96382.13;5003286;28;20305;-73
2023/08/26 06:24:35;;;;;;;12.88;6.90;;;;;;;20.87;100.00;96382.56;5013746;28;20057;-73
2023/08/26 06:27:00;;;;;;;10.95;7.07;;;;;;;20.86;100.00;96383.78;5002981;28;20526;-69
2023/08/26 06:29:26;;;;;;;15.07;7.63;;;;;;;20.68;100.00;96380.75;4992009;28;20108;-70
2023/08/26 06:31:51;;;;;;;13.02;8.68;;;;;;;20.27;100.00;96380.25;5000916;28;20045;-69
2023/08/26 06:34:17;;;;;;;15.38;9.32;;;;;;;19.93;100.00;96375.19;4999473;28;20049;-71
2023/08/26 06:36:44;;;;;;;14.50;9.27;;;;;;;19.60;100.00;96384.31;5008273;28;20561;-71
2023/08/26 06:39:11;;;;;;;18.00;10.25;;;;;;;19.53;100.00;96381.69;5001432;28;20059;-71
2023/08/26 06:41:37;;;;;;;18.27;10.20;;;;;;;19.53;100.00;96381.69;5004843;28;20046;-70
2023/08/26 06:44:02;;;;;;;15.05;10.40;;;;;;;19.57;100.00;96384.38;5014388;23;20042;-69
2023/08/26 06:46:28;;;;;;;18.88;9.95;;;;;;;19.54;100.00;96386.06;5020844;28;20048;-69
2023/08/26 06:48:53;;;;;;;14.02;9.80;;;;;;;19.71;100.00;96372.16;5019815;28;20056;-69
2023/08/26 06:51:19;;;;;;;15.10;8.75;;;;;;;19.85;100.00;96375.38;5016083;28;20046;-70
2023/08/26 06:53:44;;;;;;;14.68;7.70;;;;;;;20.12;100.00;96370.75;5019868;28;20038;-69
2023/08/26 06:56:10;;;;;;;13.10;7.70;;;;;;;20.25;100.00;96364.00;5013291;28;20496;-69
2023/08/26 06:58:36;;;;;;;15.40;7.25;;;;;;;20.74;100.00;96368.66;5020774;28;20042;-69
2023/08/26 07:01:03;;;;;;;15.93;6.80;;;;;;;21.16;100.00;96371.34;5019472;28;20046;-69
2023/08/26 07:03:29;;;;;;;12.02;6.60;;;;;;;21.46;100.00;96371.25;5018746;28;20034;-71
2023/08/26 07:05:55;;;;;;;11.82;5.90;;;;;;;21.81;100.00;96363.75;5018589;28;20037;-71
2023/08/26 07:08:20;;;;;;;11.15;6.32;;;;;;;22.05;100.00;96360.56;5019547;28;20055;-71
2023/08/26 07:10:45;;;;;;;14.45;5.85;;;;;;;22.07;100.00;96352.50;5024756;28;20497;-70
2023/08/26 07:13:12;;;;;;;12.18;6.07;;;;;;;21.80;100.00;96342.66;5017290;28;20037;-70
2023/08/26 07:15:37;;;;;;;12.30;6.88;;;;;;;21.10;100.00;96336.91;5021531;28;20398;-70
2023/08/26 07:18:03;;;;;;;15.02;7.20;;;;;;;21.55;100.00;96341.50;5020872;28;20037;-67
2023/08/26 07:20:28;;;;;;;10.73;6.60;;;;;;;21.94;100.00;96346.97;5016650;28;20402;-68
2023/08/26 07:22:54;;;;;;;10.82;5.85;;;;;;;22.54;100.00;96354.44;5020013;28;20046;-68
2023/08/26 07:25:19;;;;;;;11.63;5.53;;;;;;;22.78;100.00;96351.97;5016237;28;20152;-68
2023/08/26 07:27:45;;;;;;;15.07;5.80;;;;;;;23.09;100.00;96354.78;5019350;28;20045;-69
2023/08/26 07:30:11;;;;;;;12.82;5.90;;;;;;;23.17;100.00;96358.06;5017384;28;20045;-70
2023/08/26 07:32:37;;;;;;;12.38;6.32;;;;;;;23.57;100.00;96370.50;5019783;28;20114;-69
2023/08/26 07:35:02;;;;;;;17.85;6.50;;;;;;;23.42;100.00;96368.28;5019371;28;20038;-68
2023/08/26 07:37:29;;;;;;;11.88;5.10;;;;;;;23.56;100.00;96371.75;5017122;28;20087;-69
2023/08/26 07:39:55;;;;;;;17.70;5.22;;;;;;;23.64;100.00;96371.00;5020965;28;20617;-69
2023/08/26 07:42:20;;;;;;;13.18;4.75;;;;;;;23.45;100.00;96372.19;5013074;28;20076;-69
2023/08/26 07:44:46;;;;;;;14.95;5.53;;;;;;;23.41;100.00;96366.72;5020225;28;20045;-69
2023/08/26 07:47:11;;;;;;;12.82;4.93;;;;;;;23.03;100.00;96367.78;5019605;28;20041;-70
2023/08/26 07:49:37;;;;;;;10.02;4.95;;;;;;;22.98;100.00;96367.59;5022811;28;20053;-69
2023/08/26 07:52:03;;;;;;;9.25;4.82;;;;;;;22.93;100.00;96370.97;5031989;28;20099;-67
2023/08/26 07:54:28;;;;;;;9.20;4.53;;;;;;;22.78;100.00;96360.34;5032518;28;20160;-69
2023/08/26 07:56:55;;;;;;;11.02;4.68;;;;;;;22.72;100.00;96359.38;5028731;28;20038;-71
2023/08/26 07:59:20;;;;;;;12.15;5.75;;;;;;;22.76;100.00;96362.81;5015161;28;20125;-69
2023/08/26 08:01:47;;;;;;;16.65;5.93;;;;;;;22.67;100.00;96366.34;5017025;28;20038;-68
2023/08/26 08:04:13;;;;;;;12.40;5.40;;;;;;;22.61;100.00;96359.75;5014136;28;20084;-68
2023/08/26 08:06:38;;;;;;;13.23;5.13;;;;;;;22.72;100.00;96362.16;5020317;28;20490;-69
2023/08/26 08:09:04;;;;;;;11.95;5.78;;;;;;;22.80;100.00;96357.09;5017126;28;20037;-66
2023/08/26 08:11:29;;;;;;;9.68;4.95;;;;;;;22.92;100.00;96359.00;5018602;28;20138;-69
2023/08/26 08:13:54;;;;;;;14.05;4.82;;;;;;;23.14;100.00;96358.22;5019301;28;20038;-69
2023/08/26 08:16:20;;;;;;;10.65;4.32;;;;;;;23.22;100.00;96359.50;5015650;28;20240;-69
2023/08/26 08:18:45;;;;;;;7.07;4.38;;;;;;;23.21;100.00;96360.72;5019841;28;20435;-69
2023/08/26 08:21:10;;;;;;;12.32;5.05;;;;;;;23.62;100.00;96367.09;5015047;28;20120;-67
2023/08/26 08:23:37;;;;;;;11.05;3.97;;;;;;;23.70;100.00;96359.19;5017629;28;20045;-68
2023/08/26 08:26:03;;;;;;;8.98;4.30;;;;;;;23.89;100.00;96369.19;5016721;28;20038;-68
2023/08/26 08:28:28;;;;;;;11.40;4.75;;;;;;;24.03;100.00;96373.41;5017866;28;20402;-71
2023/08/26 08:30:53;;;;;;;25.55;15.02;;;;;;;23.97;100.00;96364.09;5019092;28;20041;-70
2023/08/26 08:33:19;;;;;;;9.30;5.03;;;;;;;23.75;100.00;96367.75;5012057;28;20124;-68
2023/08/26 08:35:44;;;;;;;12.63;5.10;;;;;;;23.70;100.00;96359.97;5019514;28;20414;-67
2023/08/26 08:38:10;;;;;;;12.15;4.72;;;;;;;23.70;100.00;96370.38;5015377;28;20065;-67
2023/08/26 08:40:37;;;;;;;12.85;4.93;;;;;;;23.74;100.00;96366.19;5019482;28;20045;-69
2023/08/26 08:43:05;;;;;;;10.43;4.70;;;;;;;23.72;100.00;96362.31;5017137;28;20565;-68
2023/08/26 08:45:32;;;;;;;11.15;4.78;;;;;;;23.58;100.00;96360.88;5017151;28;20040;-69
2023/08/26 08:47:58;;;;;;;9.75;5.20;;;;;;;23.39;100.00;96360.03;5019418;28;20513;-69
2023/08/26 08:50:24;;;;;;;11.77;4.40;;;;;;;23.55;100.00;96359.00;5014292;28;20480;-69
2023/08/26 08:52:54;;;;;;;10.57;4.15;;;;;;;23.79;100.00;96360.00;5017155;28;20653;-69
2023/08/26 08:55:21;;;;;;;13.13;4.38;;;;;;;23.85;100.00;96354.59;5016757;28;20464;-69
2023/08/26 08:57:47;;;;;;;11.35;4.63;;;;;;;24.22;100.00;96351.84;5019381;28;20602;-69
2023/08/26 09:00:13;;;;;;;9.18;4.68;;;;;;;24.53;100.00;96354.50;5013659;28;20052;-70
2023/08/26 09:02:40;;;;;;;8.98;4.35;;;;;;;24.50;98.06;96358.19;5016317;28;20525;-69
2023/08/26 09:05:07;;;;;;;12.40;4.68;;;;;;;24.26;99.15;96337.69;5012949;28;20037;-70
2023/08/26 09:07:34;;;;;;;12.27;4.47;;;;;;;23.81;100.00;96337.97;5019319;28;20115;-68
2023/08/26 09:10:02;;;;;;;10.73;4.90;;;;;;;22.88;100.00;96328.44;5020278;28;20041;-69
2023/08/26 09:12:29;;;;;;;13.05;5.45;;;;;;;22.73;100.00;96327.44;5016626;28;20045;-69
2023/08/26 09:14:55;;;;;;;15.00;6.07;;;;;;;23.06;100.00;96329.78;5016477;28;20510;-69
2023/08/26 09:17:20;;;;;;;10.18;4.22;;;;;;;23.55;100.00;96319.88;5012770;28;20049;-69
2023/08/26 09:19:58;;;;;;;12.95;5.35;;;;;;;23.15;100.00;96326.28;5015768;28;20088;-68
2023/08/26 09:22:31;;;;;;;12.80;5.78;;;;;;;23.14;100.00;96311.53;5013857;28;20511;-69
2023/08/26 09:25:01;;;;;;;10.57;5.30;;;;;;;22.61;100.00;96317.91;5019014;28;20049;-68
2023/08/26 09:27:27;;;;;;;10.07;4.80;;;;;;;23.29;100.00;96325.69;5013324;28;20132;-70
2023/08/26 09:29:54;;;;;;;13.45;4.93;;;;;;;24.21;100.00;96311.88;5018200;28;21479;-69
2023/08/26 09:32:36;;;;;;;10.13;5.82;;;;;;;24.91;96.04;96311.16;5012513;28;20205;-69
2023/08/26 09:35:12;;;;;;;11.20;5.22;;;;;;;25.43;89.67;96322.34;5017520;28;20049;-69
2023/08/26 09:37:41;;;;;;;17.73;5.20;;;;;;;25.61;87.70;96323.50;5017479;28;20041;-69
2023/08/26 09:40:07;;;;;;;11.07;4.72;;;;;;;25.90;86.12;96312.38;5012226;28;20041;-69
2023/08/26 09:42:34;;;;;;;16.13;4.45;;;;;;;26.58;81.07;96308.09;5017682;28;20195;-70
2023/08/26 09:44:59;;;;;;;15.45;4.53;;;;;;;26.06;85.44;96299.22;5017074;28;20037;-67
2023/08/26 09:47:29;;;;;;;12.13;4.32;;;;;;;26.75;79.92;96293.59;5013155;28;20112;-68
2023/08/26 09:49:54;;;;;;;;;;;;;;;27.47;76.92;96281.94;5018935;28;20059;-67
2023/08/26 09:52:19;;;;;;;11.37;3.67;;;;;;;27.06;77.68;96277.00;5011756;28;20007;-70
2023/08/26 09:54:47;;;;;;;12.43;4.50;;;;;;;27.36;75.10;96276.16;5016679;28;20045;-69
2023/08/26 09:57:12;;;;;;;9.10;3.70;;;;;;;27.61;74.62;96280.34;5009943;28;20037;-69
2023/08/26 09:59:38;;;;;;;9.77;4.18;;;;;;;27.46;76.22;96274.78;5018264;28;20049;-69
2023/08/26 10:02:16;;;;;;;13.18;4.13;;;;;;;27.90;74.01;96276.63;5014941;28;20049;-66
2023/08/26 10:04:45;;;;;;;11.00;3.70;;;;;;;28.33;71.84;96278.91;5017584;28;20045;-67
2023/08/26 10:07:11;;;;;;;7.47;3.72;;;;;;;28.01;70.98;96278.81;5012401;28;20049;-67
2023/08/26 10:09:37;;;;;;;11.27;3.97;;;;;;;27.36;73.31;96267.72;5017731;28;20042;-67
2023/08/26 10:12:05;;;;;;;13.70;3.90;;;;;;;27.70;71.52;96266.13;5016105;28;20041;-67
2023/08/26 10:14:33;;;;;;;8.65;3.90;;;;;;;26.83;73.71;96266.63;5018031;28;20037;-68
2023/08/26 10:17:02;;;;;;;10.63;3.97;;;;;;;26.72;77.99;96255.22;5017654;28;20034;-69
2023/08/26 10:19:29;;;;;;;9.05;3.55;;;;;;;27.70;73.57;96271.75;5012360;28;20076;-69
2023/08/26 10:21:56;;;;;;;8.98;4.05;;;;;;;28.47;68.11;96285.69;5012670;28;20403;-67
2023/08/26 10:24:21;;;;;;;11.05;4.13;;;;;;;28.58;65.99;96286.63;5014036;28;20501;-69
2023/08/26 10:26:47;;;;;;;9.20;3.75;;;;;;;28.79;66.91;96286.53;5018598;28;20050;-69
2023/08/26 10:29:14;;;;;;;13.60;3.70;;;;;;;28.64;67.83;96280.25;5012748;28;20041;-69
2023/08/26 10:31:42;;;;;;;9.18;4.18;;;;;;;28.71;67.14;96282.63;5014691;28;20505;-68
2023/08/26 10:34:07;;;;;;;11.90;3.70;;;;;;;28.59;65.92;96287.38;5012224;28;20108;-69
2023/08/26 10:36:34;;;;;;;11.85;4.00;;;;;;;27.87;70.07;96283.22;5017632;28;20037;-69
2023/08/26 10:39:00;;;;;;;10.13;3.95;;;;;;;27.77;70.93;96282.59;5015322;28;20033;-69
2023/08/26 10:41:26;;;;;;;10.50;4.30;;;;;;;27.72;71.11;96286.09;5019987;28;20106;-70
2023/08/26 10:43:58;;;;;;;11.50;3.90;;;;;;;27.73;72.62;96265.16;5021075;28;20043;-69
2023/08/26 10:46:34;;;;;;;9.27;4.57;;;;;;;28.50;67.75;96268.56;5017098;28;20624;-68
2023/08/26 10:49:04;;;;;;;8.60;4.20;;;;;;;28.92;64.65;96272.06;5020414;28;20038;-68
2023/08/26 10:51:36;;;;;;;10.55;4.15;;;;;;;28.32;65.18;96280.16;5017796;28;20064;-71
2023/08/26 10:54:04;;;;;;;8.05;3.63;;;;;;;28.37;65.49;96273.81;5018338;28;20041;-71
2023/08/26 10:56:34;;;;;;;12.87;3.80;;;;;;;28.08;68.27;96269.19;5020981;28;20065;-71
2023/08/26 10:59:04;;;;;;;8.02;4.03;;;;;;;27.11;74.75;96263.50;5020478;28;20068;-71
2023/08/26 11:01:35;;;;;;;10.75;3.90;;;;;;;26.84;75.77;96268.97;5020278;28;20045;-70
2023/08/26 11:04:01;;;;;;;14.10;3.92;;;;;;;26.77;78.10;96266.53;5021630;28;20051;-69
2023/08/26 11:06:26;;;;;;;11.30;4.35;;;;;;;26.06;81.21;96269.09;5016730;28;20045;-72
2023/08/26 11:08:57;;;;;;;11.50;4.13;;;;;;;25.78;83.92;96267.75;5018468;28;20084;-71
2023/08/26 11:11:23;;;;;;;12.25;4.55;;;;;;;25.31;88.69;96278.47;5011236;28;20057;-70
2023/08/26 11:13:49;;;;;;;9.13;4.25;;;;;;;25.05;92.18;96281.69;5020343;28;20132;-70